createdAt,value
2022-10-19T05:25:13.141Z,11.75
2022-10-19T05:28:16.461Z,11.82
2022-10-19T05:31:26.389Z,12.30
2022-10-19T05:34:29.511Z,13.48
2022-10-19T05:37:35.102Z,15.88
2022-10-19T05:40:38.455Z,14.35
2022-10-19T05:43:42.474Z,14.80
2022-10-19T05:46:45.991Z,13.90
2022-10-19T05:49:51.375Z,14.70
2022-10-19T05:52:54.715Z,12.73
2022-10-19T05:56:00.048Z,57.78
2022-10-19T05:59:05.899Z,21.27
2022-10-19T06:02:14.299Z,15.75
2022-10-19T06:05:17.421Z,15.25
2022-10-19T06:08:22.394Z,13.38
2022-10-19T06:11:45.189Z,14.32
2022-10-19T06:15:01.277Z,14.50
2022-10-19T06:18:04.887Z,14.65
2022-10-19T06:21:11.369Z,14.13
2022-10-19T06:24:14.749Z,13.55
2022-10-19T06:27:19.987Z,14.95
2022-10-19T06:30:25.599Z,18.45
2022-10-19T06:33:30.035Z,14.98
2022-10-19T06:36:34.527Z,14.27
2022-10-19T06:39:37.213Z,15.00
2022-10-19T06:42:40.522Z,13.13
2022-10-19T06:45:43.755Z,14.32
2022-10-19T06:49:16.702Z,14.55
2022-10-19T06:52:24.241Z,13.23
2022-10-19T06:55:48.119Z,13.18
2022-10-19T06:58:52.233Z,12.07
2022-10-19T07:02:15.427Z,12.73
2022-10-19T07:05:18.439Z,11.07
2022-10-19T07:08:21.961Z,11.02
2022-10-19T07:11:24.988Z,10.50
2022-10-19T07:14:31.575Z,10.88
2022-10-19T07:17:46.397Z,9.95
2022-10-19T07:21:00.757Z,9.15
2022-10-19T07:24:23.145Z,8.57
2022-10-19T07:27:37.834Z,7.97
2022-10-19T07:31:06.376Z,8.38
2022-10-19T07:34:29.482Z,7.33
2022-10-19T07:37:32.533Z,7.45
2022-10-19T07:40:38.196Z,6.70
2022-10-19T07:43:42.662Z,5.90
2022-10-19T07:46:45.512Z,5.97
2022-10-19T07:49:48.155Z,5.40
2022-10-19T07:52:54.697Z,5.45
2022-10-19T07:56:07.165Z,5.53
2022-10-19T08:10:47.154Z,4.50
2022-10-19T08:14:27.090Z,4.97
2022-10-19T08:17:30.938Z,4.20
2022-10-19T08:21:22.788Z,4.60
2022-10-19T08:24:46.062Z,4.50
2022-10-19T08:27:48.984Z,3.85
2022-10-19T08:30:52.122Z,3.78
2022-10-19T08:33:55.770Z,3.80
2022-10-19T08:36:58.431Z,3.33
2022-10-19T08:40:01.440Z,3.37
2022-10-19T08:43:30.133Z,3.17
2022-10-19T08:46:55.947Z,2.85
2022-10-19T08:49:59.896Z,2.80
2022-10-19T08:53:11.437Z,2.40
2022-10-19T08:56:45.830Z,2.70
2022-10-19T09:00:12.544Z,2.58
2022-10-19T09:03:56.832Z,2.10
2022-10-19T09:07:26.014Z,2.55
2022-10-19T09:10:32.583Z,2.05
2022-10-19T09:14:04.079Z,1.80
2022-10-19T09:17:28.921Z,1.50
2022-10-19T09:20:41.549Z,2.05
2022-10-19T09:24:21.165Z,2.60
2022-10-19T09:28:45.556Z,2.25
2022-10-19T09:31:53.919Z,1.92
2022-10-19T09:35:07.389Z,1.65
2022-10-19T09:38:32.146Z,1.67
2022-10-19T09:41:59.342Z,1.73
2022-10-19T09:45:14.656Z,2.10
2022-10-19T09:48:37.756Z,1.42
2022-10-19T09:51:47.090Z,1.83
2022-10-19T09:55:03.578Z,1.55
2022-10-19T09:58:13.435Z,1.52
2022-10-19T10:01:41.477Z,1.70
2022-10-19T10:05:15.757Z,1.50
2022-10-19T10:08:22.919Z,2.08
2022-10-19T10:11:48.074Z,1.60
2022-10-19T10:14:56.508Z,2.05
2022-10-19T10:17:59.943Z,1.57
2022-10-19T10:21:25.433Z,1.77
2022-10-19T10:24:45.387Z,1.60
2022-10-19T10:27:57.751Z,1.00
2022-10-19T10:31:05.450Z,1.10
2022-10-19T10:34:28.488Z,1.15
2022-10-19T10:37:42.929Z,1.37
2022-10-19T10:41:01.020Z,1.60
2022-10-19T10:44:17.402Z,2.23
2022-10-19T10:47:21.302Z,1.10
2022-10-19T10:50:32.603Z,1.05
2022-10-19T10:53:40.542Z,0.90
2022-10-19T10:56:54.827Z,1.02
2022-10-19T11:00:14.157Z,1.00
2022-10-19T11:06:27.949Z,1.20
2022-10-19T11:09:43.690Z,1.12
2022-10-19T11:12:54.730Z,1.10
2022-10-19T11:16:24.488Z,1.40
2022-10-19T11:19:37.507Z,1.20
2022-10-19T11:23:05.682Z,1.10
2022-10-19T11:26:25.372Z,1.40
2022-10-19T11:29:52.074Z,1.40
2022-10-19T11:34:21.237Z,1.12
2022-10-19T11:37:50.096Z,1.25
2022-10-19T11:41:39.491Z,1.50
2022-10-19T11:44:59.606Z,1.12
2022-10-19T11:48:14.270Z,3.83
2022-10-19T11:51:33.051Z,1.10
2022-10-19T11:55:27.338Z,1.10
2022-10-19T12:02:24.158Z,1.30
2022-10-19T12:05:48.255Z,1.23
2022-10-19T12:09:09.452Z,1.12
2022-10-19T12:12:44.301Z,1.40
2022-10-19T12:15:53.834Z,1.40
2022-10-19T12:19:00.997Z,1.40
2022-10-19T12:22:07.191Z,1.50
2022-10-19T12:25:14.729Z,1.23
2022-10-19T12:28:35.909Z,1.33
2022-10-19T12:31:40.925Z,1.30
2022-10-19T12:35:04.221Z,1.52
2022-10-19T12:38:14.812Z,1.50
2022-10-19T12:41:37.912Z,1.67
2022-10-19T12:45:01.158Z,1.75
2022-10-19T12:48:12.884Z,1.85
2022-10-19T12:51:18.275Z,2.28
2022-10-19T12:54:27.181Z,1.75
2022-10-19T12:57:30.551Z,2.20
2022-10-19T13:00:37.648Z,2.22
2022-10-19T13:03:43.371Z,2.25
2022-10-19T13:07:17.934Z,1.90
2022-10-19T13:10:41.959Z,1.98
2022-10-19T13:14:07.195Z,2.10
2022-10-19T13:17:52.699Z,1.92
2022-10-19T13:21:44.433Z,3.67
2022-10-19T13:28:59.694Z,2.15
2022-10-19T13:33:03.562Z,2.50
2022-10-19T13:37:03.876Z,2.03
2022-10-19T13:40:49.475Z,2.10
2022-10-19T13:44:35.572Z,2.05
2022-10-19T13:47:58.145Z,2.17
2022-10-19T13:51:41.878Z,2.12
2022-10-19T13:56:00.446Z,1.80
2022-10-19T13:59:41.027Z,2.30
2022-10-19T14:07:33.229Z,2.40
2022-10-19T14:11:00.230Z,2.25
2022-10-19T14:14:28.335Z,2.50
2022-10-19T14:17:34.317Z,2.40
2022-10-19T14:20:39.306Z,2.65
2022-10-19T14:23:42.714Z,2.70
2022-10-19T14:26:46.762Z,2.42
2022-10-19T14:29:52.214Z,2.60
2022-10-19T14:32:59.421Z,2.60
2022-10-19T14:43:42.925Z,2.58
2022-10-19T14:51:35.930Z,3.40
2022-10-19T14:54:48.705Z,2.58
2022-10-19T14:57:53.889Z,2.85
2022-10-19T15:01:07.680Z,2.67
2022-10-19T15:04:36.565Z,2.47
2022-10-19T15:08:21.667Z,2.78
2022-10-19T15:11:33.038Z,2.50
2022-10-19T15:14:56.979Z,2.67
2022-10-19T15:18:43.541Z,2.50
2022-10-19T15:22:14.421Z,3.50
2022-10-19T15:25:28.082Z,2.40
2022-10-19T15:28:40.595Z,2.90
2022-10-19T15:31:47.041Z,3.78
2022-10-19T15:34:49.861Z,2.60
2022-10-19T15:38:15.585Z,2.70
2022-10-19T15:41:21.811Z,2.78
2022-10-19T15:44:42.521Z,3.20
2022-10-19T15:48:10.295Z,2.70
2022-10-19T15:51:25.772Z,3.25
2022-10-19T15:54:28.503Z,3.03
2022-10-19T15:57:37.200Z,3.08
2022-10-19T16:00:41.974Z,2.97
2022-10-19T16:03:46.210Z,4.37
2022-10-19T16:06:48.991Z,7.37
2022-10-19T16:09:53.043Z,4.22
2022-10-19T16:12:55.666Z,3.53
2022-10-19T16:16:11.350Z,3.37
2022-10-19T16:19:14.934Z,2.83
2022-10-19T16:22:19.056Z,3.20
2022-10-19T16:25:22.062Z,3.35
2022-10-19T16:28:25.288Z,4.05
2022-10-19T16:31:28.439Z,4.62
2022-10-19T16:34:31.632Z,4.03
2022-10-19T16:37:35.380Z,4.00
2022-10-19T16:40:40.292Z,3.40
2022-10-19T16:43:43.850Z,3.92
2022-10-19T16:46:47.070Z,3.87
2022-10-19T16:49:58.439Z,3.33
2022-10-19T16:53:10.265Z,3.28
2022-10-19T16:56:13.824Z,3.78
2022-10-19T16:59:19.018Z,3.15
2022-10-19T17:02:22.414Z,3.03
2022-10-19T17:05:26.612Z,3.05
2022-10-19T17:08:36.911Z,3.00
2022-10-19T17:11:48.990Z,2.90
2022-10-19T17:14:52.039Z,3.72
2022-10-19T17:17:55.683Z,3.40
2022-10-19T17:21:07.744Z,3.45
2022-10-19T17:24:21.021Z,3.78
2022-10-19T17:27:25.754Z,4.35
2022-10-19T17:30:30.425Z,5.18
2022-10-19T17:33:36.445Z,5.22
2022-10-19T17:36:44.431Z,5.03
2022-10-19T17:39:51.570Z,4.60
2022-10-19T17:42:55.067Z,4.03
2022-10-19T17:46:03.239Z,4.40
2022-10-19T17:49:07.738Z,3.25
2022-10-19T17:52:10.911Z,2.80
2022-10-19T17:55:14.790Z,2.85
2022-10-19T17:58:18.401Z,2.42
2022-10-19T18:01:22.453Z,3.05
2022-10-19T18:04:26.041Z,2.50
2022-10-19T18:07:28.958Z,2.70
2022-10-19T18:10:35.535Z,2.83
2022-10-19T18:13:39.543Z,2.40
2022-10-19T18:16:47.296Z,2.70
2022-10-19T18:19:50.432Z,2.70
2022-10-19T18:22:53.646Z,2.50
2022-10-19T18:26:01.248Z,2.78
2022-10-19T18:29:12.763Z,2.87
2022-10-19T18:32:16.168Z,2.72
2022-10-19T18:35:19.553Z,2.80
2022-10-19T18:38:22.987Z,2.75
2022-10-19T18:41:27.036Z,2.87
2022-10-19T18:44:33.474Z,2.85
2022-10-19T18:47:37.212Z,2.55
2022-10-19T18:50:41.177Z,2.60
2022-10-19T18:53:45.693Z,2.85
2022-10-19T18:56:49.563Z,2.83
2022-10-19T18:59:55.489Z,2.75
2022-10-19T19:02:58.567Z,2.80
2022-10-19T19:06:03.063Z,2.40
2022-10-19T19:09:09.714Z,2.70
2022-10-19T19:12:12.853Z,2.80
2022-10-19T19:15:16.158Z,2.37
2022-10-19T19:18:19.305Z,2.20
2022-10-19T19:21:29.713Z,2.30
2022-10-19T19:24:33.030Z,2.45
2022-10-19T19:30:47.313Z,2.62
2022-10-19T19:33:50.828Z,2.33
2022-10-19T19:36:54.203Z,2.47
2022-10-19T19:39:58.163Z,2.10
2022-10-19T19:43:01.689Z,2.22
2022-10-19T19:46:09.549Z,2.35
2022-10-19T19:49:13.151Z,2.58
2022-10-19T19:52:16.577Z,2.62
2022-10-19T19:55:20.666Z,2.10
2022-10-19T19:58:23.777Z,2.50
2022-10-19T20:01:27.355Z,2.35
2022-10-19T20:04:30.502Z,2.08
2022-10-19T20:07:33.756Z,2.12
2022-10-19T20:10:39.726Z,2.00
2022-10-19T20:13:45.122Z,2.20
2022-10-19T20:16:48.709Z,2.12
2022-10-19T20:19:51.737Z,1.92
2022-10-19T20:22:54.999Z,2.10
2022-10-19T20:25:58.192Z,1.73
2022-10-19T20:29:02.854Z,2.30
2022-10-19T20:32:05.934Z,2.60
2022-10-19T20:35:09.380Z,1.92
2022-10-19T20:38:12.328Z,1.80
2022-10-19T20:41:15.957Z,1.90
2022-10-19T20:44:22.027Z,1.92
2022-10-19T20:47:25.511Z,2.33
2022-10-19T20:50:29.676Z,1.90
2022-10-19T20:53:32.773Z,1.90
2022-10-19T20:56:37.127Z,2.20
2022-10-19T20:59:43.860Z,1.75
2022-10-19T21:02:46.779Z,2.08
2022-10-19T21:05:49.753Z,2.12
2022-10-19T21:08:52.804Z,1.90
2022-10-19T21:11:55.720Z,2.00
2022-10-19T21:14:58.226Z,1.98
2022-10-19T21:18:01.103Z,2.42
2022-10-19T21:21:22.190Z,1.90
2022-10-19T21:24:27.803Z,2.00
2022-10-19T21:27:30.326Z,1.95
2022-10-19T21:30:39.356Z,1.90
2022-10-19T21:33:42.043Z,2.00
2022-10-19T21:36:45.266Z,1.87
2022-10-19T21:39:47.949Z,1.65
2022-10-19T21:42:50.733Z,1.67
2022-10-19T21:45:53.446Z,1.90
2022-10-19T21:48:56.569Z,1.95
2022-10-19T21:51:59.185Z,2.00
2022-10-19T21:55:02.034Z,2.15
2022-10-19T21:58:05.256Z,1.87
2022-10-19T22:01:08.654Z,1.67
2022-10-19T22:04:17.243Z,1.67
2022-10-19T22:07:19.793Z,2.10
2022-10-19T22:10:23.375Z,2.10
2022-10-19T22:13:25.935Z,2.12
2022-10-19T22:16:29.969Z,1.80
2022-10-19T22:19:32.569Z,2.30
2022-10-19T22:22:35.580Z,2.22
2022-10-19T22:25:38.188Z,2.10
2022-10-19T22:28:41.016Z,2.33
2022-10-19T22:31:44.579Z,2.40
2022-10-19T22:34:47.447Z,1.95
2022-10-19T22:37:49.971Z,1.98
2022-10-19T22:41:49.381Z,2.15
2022-10-19T22:45:10.464Z,1.62
2022-10-19T22:48:13.586Z,2.33
2022-10-19T22:51:16.362Z,2.20
2022-10-19T22:54:19.326Z,1.83
2022-10-19T22:57:22.029Z,2.20
2022-10-19T23:00:25.336Z,2.05
2022-10-19T23:03:27.929Z,1.60
2022-10-19T23:06:30.825Z,2.00
2022-10-19T23:09:33.834Z,2.08
2022-10-19T23:12:36.857Z,1.55
2022-10-19T23:15:43.156Z,2.20
2022-10-19T23:18:46.929Z,2.08
2022-10-19T23:21:49.578Z,1.87
2022-10-19T23:24:52.505Z,2.10
2022-10-19T23:27:55.134Z,2.08
2022-10-19T23:31:07.401Z,1.70
2022-10-19T23:34:10.102Z,1.85
2022-10-19T23:37:12.913Z,1.77
2022-10-19T23:40:21.464Z,1.70
2022-10-19T23:43:24.504Z,2.03
2022-10-19T23:46:27.129Z,1.65
2022-10-19T23:49:30.154Z,2.05
